createdAt,value
2023-01-17T00:00:30.932Z,5.05
2023-01-17T00:03:05.041Z,4.23
2023-01-17T00:06:01.111Z,4.30
2023-01-17T00:08:55.564Z,6.10
2023-01-17T00:11:27.936Z,3.47
2023-01-17T00:14:00.977Z,5.32
2023-01-17T00:16:36.662Z,5.43
2023-01-17T00:19:27.758Z,4.45
2023-01-17T00:22:18.537Z,5.55
2023-01-17T00:25:08.908Z,5.25
2023-01-17T00:27:41.604Z,3.53
2023-01-17T00:30:14.272Z,4.23
2023-01-17T00:32:46.161Z,4.68
2023-01-17T00:35:21.077Z,4.75
2023-01-17T00:38:13.355Z,4.25
2023-01-17T00:40:47.736Z,4.88
2023-01-17T00:43:41.868Z,3.07
2023-01-17T00:46:33.079Z,3.85
2023-01-17T00:49:23.491Z,4.38
2023-01-17T00:52:14.803Z,3.47
2023-01-17T00:55:05.147Z,3.17
2023-01-17T00:57:56.722Z,6.07
2023-01-17T01:00:48.067Z,4.55
2023-01-17T01:03:38.793Z,3.70
2023-01-17T01:06:29.143Z,5.25
2023-01-17T01:09:20.415Z,3.30
2023-01-17T01:12:10.845Z,4.90
2023-01-17T01:15:01.985Z,3.65
2023-01-17T01:17:53.124Z,3.28
2023-01-17T01:20:44.680Z,3.20
2023-01-17T01:23:35.362Z,5.03
2023-01-17T01:26:26.004Z,4.03
2023-01-17T01:29:17.023Z,3.70
2023-01-17T01:32:07.338Z,3.60
2023-01-17T01:34:40.072Z,3.53
2023-01-17T01:37:12.396Z,4.28
2023-01-17T01:39:44.720Z,3.90
2023-01-17T01:42:17.404Z,6.50
2023-01-17T01:44:55.332Z,3.20
2023-01-17T01:47:36.537Z,4.00
2023-01-17T01:50:11.103Z,3.65
2023-01-17T01:52:52.467Z,4.43
2023-01-17T01:55:30.423Z,4.35
2023-01-17T01:58:15.884Z,3.80
2023-01-17T02:00:48.672Z,3.38
2023-01-17T02:03:29.906Z,3.35
2023-01-17T02:07:08.292Z,4.70
2023-01-17T02:09:41.293Z,3.30
2023-01-17T02:12:13.886Z,5.70
2023-01-17T02:14:47.252Z,3.63
2023-01-17T02:17:48.565Z,4.25
2023-01-17T02:20:50.724Z,4.23
2023-01-17T02:24:27.116Z,3.63
2023-01-17T02:27:25.410Z,3.40
2023-01-17T02:30:27.974Z,3.20
2023-01-17T02:33:17.585Z,3.70
2023-01-17T02:36:24.485Z,4.60
2023-01-17T02:39:04.872Z,4.07
2023-01-17T02:41:45.281Z,3.63
2023-01-17T02:44:20.944Z,4.60
2023-01-17T02:46:56.652Z,3.50
2023-01-17T02:49:32.301Z,4.50
2023-01-17T02:52:40.581Z,6.03
2023-01-17T02:55:37.575Z,8.05
2023-01-17T02:58:18.192Z,6.47
2023-01-17T03:01:26.201Z,5.93
2023-01-17T03:04:11.511Z,3.83
2023-01-17T03:06:55.081Z,3.88
2023-01-17T03:09:28.519Z,5.10
2023-01-17T03:12:01.179Z,6.13
2023-01-17T03:14:33.251Z,5.10
2023-01-17T03:17:06.677Z,4.13
2023-01-17T03:19:39.432Z,5.20
2023-01-17T03:22:11.916Z,3.40
2023-01-17T03:27:37.824Z,4.57
2023-01-17T03:30:10.938Z,4.83
2023-01-17T03:32:43.907Z,3.67
2023-01-17T03:35:17.364Z,4.10
2023-01-17T03:37:49.277Z,6.95
2023-01-17T03:40:22.030Z,4.75
2023-01-17T03:42:54.587Z,6.03
2023-01-17T03:45:26.958Z,4.03
2023-01-17T03:48:00.446Z,6.28
2023-01-17T03:50:33.159Z,6.30
2023-01-17T03:53:05.465Z,5.60
2023-01-17T03:55:38.182Z,4.53
2023-01-17T03:58:10.538Z,4.40
2023-01-17T04:00:43.660Z,3.70
2023-01-17T04:03:15.546Z,4.55
2023-01-17T04:05:48.342Z,4.18
2023-01-17T04:08:20.272Z,3.37
2023-01-17T04:10:53.159Z,3.97
2023-01-17T04:13:25.091Z,5.18
2023-01-17T04:15:59.426Z,8.13
2023-01-17T04:18:31.709Z,6.13
2023-01-17T04:21:04.696Z,5.33
2023-01-17T04:23:36.642Z,4.28
2023-01-17T04:26:13.201Z,6.60
2023-01-17T04:28:45.881Z,6.38
2023-01-17T04:31:19.173Z,5.78
2023-01-17T04:33:51.065Z,5.30
2023-01-17T04:36:23.805Z,3.92
2023-01-17T04:38:56.762Z,6.40
2023-01-17T04:41:28.682Z,7.30
2023-01-17T04:44:02.367Z,4.70
2023-01-17T04:46:34.795Z,3.90
2023-01-17T04:49:07.540Z,5.28
2023-01-17T04:51:39.976Z,5.82
2023-01-17T04:54:12.363Z,8.65
2023-01-17T04:56:44.744Z,4.50
2023-01-17T04:59:17.619Z,6.67
2023-01-17T05:01:50.154Z,4.18
2023-01-17T05:04:22.096Z,6.70
2023-01-17T05:06:55.424Z,4.60
2023-01-17T05:09:27.420Z,5.55
2023-01-17T05:11:59.782Z,5.17
2023-01-17T05:14:34.932Z,5.63
2023-01-17T05:17:07.715Z,7.20
2023-01-17T05:19:40.488Z,3.97
2023-01-17T05:22:16.186Z,3.83
2023-01-17T05:24:49.081Z,4.80
2023-01-17T05:27:20.981Z,6.20
2023-01-17T05:29:53.683Z,4.85
2023-01-17T05:32:25.683Z,5.88
2023-01-17T05:34:58.444Z,6.72
2023-01-17T05:37:30.380Z,9.00
2023-01-17T05:40:03.702Z,4.30
2023-01-17T05:42:35.589Z,7.88
2023-01-17T05:45:10.399Z,6.82
2023-01-17T05:47:50.375Z,5.18
2023-01-17T05:50:27.738Z,4.83
2023-01-17T05:53:03.545Z,11.00
2023-01-17T05:55:36.527Z,4.43
2023-01-17T05:58:14.978Z,7.40
2023-01-17T06:00:47.739Z,5.82
2023-01-17T06:03:20.506Z,5.70
2023-01-17T06:05:52.968Z,5.28
2023-01-17T06:08:25.694Z,5.75
2023-01-17T06:10:59.548Z,6.18
2023-01-17T06:13:33.049Z,4.90
2023-01-17T06:16:05.557Z,6.97
2023-01-17T06:18:37.869Z,6.32
2023-01-17T06:21:11.049Z,5.07
2023-01-17T06:23:42.995Z,4.63
2023-01-17T06:26:15.830Z,6.03
2023-01-17T06:28:48.064Z,7.63
2023-01-17T06:31:21.189Z,6.15
2023-01-17T06:33:53.630Z,5.78
2023-01-17T06:36:26.814Z,9.00
2023-01-17T06:38:59.232Z,6.13
2023-01-17T06:41:31.302Z,4.97
2023-01-17T06:44:04.712Z,7.68
2023-01-17T06:46:36.850Z,5.43
2023-01-17T06:49:09.761Z,8.57
2023-01-17T06:51:43.634Z,5.97
2023-01-17T06:54:16.612Z,5.07
2023-01-17T06:56:48.538Z,8.73
2023-01-17T06:59:21.762Z,7.30
2023-01-17T07:01:54.135Z,7.00
2023-01-17T07:04:26.968Z,6.95
2023-01-17T07:06:58.957Z,5.80
2023-01-17T07:09:31.741Z,8.48
2023-01-17T07:12:04.498Z,8.80
2023-01-17T07:14:36.818Z,5.10
2023-01-17T07:17:09.562Z,7.05
2023-01-17T07:19:41.519Z,8.53
2023-01-17T07:22:14.365Z,6.07
2023-01-17T07:24:46.277Z,6.30
2023-01-17T07:27:18.996Z,7.60
2023-01-17T07:29:52.730Z,8.82
2023-01-17T07:32:27.011Z,6.33
2023-01-17T07:34:59.409Z,5.07
2023-01-17T07:37:31.483Z,5.28
2023-01-17T07:40:04.455Z,8.48
2023-01-17T07:42:36.436Z,6.65
2023-01-17T07:45:10.395Z,7.87
2023-01-17T07:47:42.718Z,8.38
2023-01-17T07:50:15.958Z,5.72
2023-01-17T07:52:52.107Z,7.22
2023-01-17T07:55:24.972Z,6.45
2023-01-17T07:57:56.988Z,7.03
2023-01-17T08:00:29.951Z,7.35
2023-01-17T08:03:02.022Z,8.02
2023-01-17T08:05:34.847Z,7.00
2023-01-17T08:08:07.734Z,7.82
2023-01-17T08:10:40.024Z,6.57
2023-01-17T08:13:12.343Z,14.50
2023-01-17T08:15:44.214Z,10.40
2023-01-17T08:18:18.261Z,6.88
2023-01-17T08:20:50.636Z,10.32
2023-01-17T08:23:23.149Z,7.63
2023-01-17T08:26:01.239Z,7.05
2023-01-17T08:28:34.438Z,7.13
2023-01-17T08:31:10.709Z,9.07
2023-01-17T08:33:42.874Z,7.07
2023-01-17T08:36:14.863Z,7.97
2023-01-17T08:38:47.920Z,9.45
2023-01-17T08:41:21.679Z,6.78
2023-01-17T08:44:03.334Z,7.75
2023-01-17T08:46:42.190Z,6.03
2023-01-17T08:49:14.151Z,7.03
2023-01-17T08:51:47.117Z,10.18
2023-01-17T08:54:20.092Z,6.70
2023-01-17T08:56:52.979Z,5.57
2023-01-17T08:59:25.832Z,5.88
2023-01-17T09:01:58.770Z,8.30
2023-01-17T09:04:31.394Z,7.85
2023-01-17T09:07:07.418Z,8.02
2023-01-17T09:09:39.841Z,6.20
2023-01-17T09:12:11.780Z,6.63
2023-01-17T09:14:44.499Z,7.60
2023-01-17T09:17:16.427Z,8.10
2023-01-17T09:19:49.231Z,6.18
2023-01-17T09:22:21.546Z,7.53
2023-01-17T09:24:54.229Z,10.05
2023-01-17T09:27:26.099Z,7.13
2023-01-17T09:29:59.207Z,6.72
2023-01-17T09:32:32.972Z,10.30
2023-01-17T09:35:07.899Z,6.72
2023-01-17T09:37:40.644Z,8.27
2023-01-17T09:40:21.993Z,7.43
2023-01-17T09:43:02.937Z,6.38
2023-01-17T09:45:35.372Z,7.60
2023-01-17T09:48:15.421Z,6.53
2023-01-17T09:51:07.565Z,5.43
2023-01-17T09:53:42.087Z,8.73
2023-01-17T09:56:47.094Z,8.43
2023-01-17T09:59:45.284Z,5.93
2023-01-17T10:02:52.705Z,4.63
2023-01-17T10:06:01.680Z,4.22
2023-01-17T10:09:16.183Z,4.33
2023-01-17T10:12:35.611Z,5.85
2023-01-17T10:15:29.294Z,6.10
2023-01-17T10:18:29.900Z,6.90
2023-01-17T10:21:17.891Z,5.25
2023-01-17T10:24:34.624Z,7.07
2023-01-17T10:27:21.000Z,8.10
2023-01-17T10:29:54.193Z,8.10
2023-01-17T10:32:32.752Z,7.18
2023-01-17T10:35:32.341Z,6.88
2023-01-17T10:38:11.529Z,10.07
2023-01-17T10:40:50.828Z,7.53
2023-01-17T10:43:33.783Z,10.55
2023-01-17T10:49:19.142Z,8.35
2023-01-17T10:52:18.793Z,9.70
2023-01-17T10:55:13.261Z,7.65
2023-01-17T10:57:48.713Z,6.07
2023-01-17T11:00:58.892Z,6.93
2023-01-17T11:03:32.548Z,7.43
2023-01-17T11:06:26.431Z,6.83
2023-01-17T11:09:02.571Z,8.98
2023-01-17T11:11:36.160Z,6.80
2023-01-17T11:14:22.591Z,9.43
2023-01-17T11:17:06.157Z,9.52
2023-01-17T11:19:40.899Z,10.87
2023-01-17T11:22:16.415Z,8.35
2023-01-17T11:24:53.844Z,11.40
2023-01-17T11:27:36.644Z,8.35
2023-01-17T11:30:24.804Z,7.70
2023-01-17T11:33:04.166Z,8.30
2023-01-17T11:35:44.548Z,8.18
2023-01-17T11:38:22.168Z,6.75
2023-01-17T11:41:15.345Z,5.82
2023-01-17T11:43:58.235Z,8.60
2023-01-17T11:46:33.494Z,10.17
2023-01-17T11:49:06.257Z,8.10
2023-01-17T11:51:43.118Z,5.82
2023-01-17T11:54:29.446Z,6.13
2023-01-17T11:57:03.273Z,6.07
2023-01-17T11:59:38.383Z,7.57
2023-01-17T12:02:51.566Z,7.57
2023-01-17T12:05:40.711Z,7.38
2023-01-17T12:08:55.791Z,12.07
2023-01-17T12:12:04.533Z,8.55
2023-01-17T12:15:19.261Z,6.50
2023-01-17T12:18:31.305Z,9.30
2023-01-17T12:21:39.443Z,8.50
2023-01-17T12:24:58.785Z,8.82
2023-01-17T12:28:01.677Z,10.23
2023-01-17T12:30:48.463Z,8.30
2023-01-17T12:33:58.239Z,9.20
2023-01-17T12:37:18.405Z,8.18
2023-01-17T12:39:59.923Z,10.35
2023-01-17T12:42:39.036Z,9.40
2023-01-17T12:45:22.683Z,9.80
2023-01-17T12:48:05.128Z,7.53
2023-01-17T12:51:04.680Z,6.68
2023-01-17T12:54:01.086Z,8.43
2023-01-17T12:56:59.720Z,6.80
2023-01-17T12:59:58.187Z,6.33
2023-01-17T13:02:46.098Z,6.38
2023-01-17T13:05:29.765Z,8.20
2023-01-17T13:08:18.398Z,6.57
2023-01-17T13:11:11.996Z,9.02
2023-01-17T13:13:45.209Z,7.13
2023-01-17T13:16:33.732Z,10.38
2023-01-17T13:19:18.128Z,7.70
2023-01-17T13:21:51.388Z,6.25
2023-01-17T13:25:02.477Z,6.07
2023-01-17T13:27:50.984Z,7.00
2023-01-17T13:30:52.012Z,6.32
2023-01-17T13:33:44.245Z,3.92
2023-01-17T13:36:58.204Z,4.15
2023-01-17T13:40:39.744Z,5.57
2023-01-17T13:43:38.533Z,6.33
2023-01-17T13:46:11.528Z,4.35
2023-01-17T13:48:44.283Z,10.68
2023-01-17T13:51:19.681Z,6.13
2023-01-17T13:53:52.433Z,4.93
2023-01-17T13:56:31.903Z,5.43
2023-01-17T13:59:06.261Z,6.15
2023-01-17T14:01:44.456Z,6.93
2023-01-17T14:04:17.319Z,6.22
2023-01-17T14:06:59.434Z,8.07
2023-01-17T14:09:43.073Z,5.77
2023-01-17T14:12:27.525Z,4.00
2023-01-17T14:15:01.881Z,5.10
2023-01-17T14:17:49.947Z,5.60
2023-01-17T14:20:49.606Z,7.03
2023-01-17T14:23:30.587Z,4.87
2023-01-17T14:26:41.694Z,5.22
2023-01-17T14:29:48.733Z,5.07
2023-01-17T14:32:27.586Z,3.53
2023-01-17T14:37:54.447Z,5.60
2023-01-17T14:40:30.781Z,6.97
2023-01-17T14:43:16.586Z,8.77
2023-01-17T14:45:49.076Z,4.95
2023-01-17T14:48:23.919Z,4.60
2023-01-17T14:51:00.007Z,6.40
2023-01-17T14:53:35.352Z,6.22
2023-01-17T14:56:19.728Z,4.00
2023-01-17T14:59:13.337Z,5.80
2023-01-17T15:02:06.530Z,6.03
2023-01-17T15:04:41.178Z,3.57
2023-01-17T15:07:17.111Z,5.85
2023-01-17T15:09:50.283Z,6.43
2023-01-17T15:12:22.586Z,6.38
2023-01-17T15:15:01.431Z,4.13
2023-01-17T15:17:34.154Z,4.53
2023-01-17T15:20:11.617Z,5.00
2023-01-17T15:22:43.610Z,8.70
2023-01-17T15:25:16.466Z,6.47
2023-01-17T15:27:48.584Z,7.57
2023-01-17T15:30:25.361Z,4.87
2023-01-17T15:32:57.903Z,7.95
2023-01-17T15:35:29.907Z,4.85
2023-01-17T15:38:03.843Z,6.63
2023-01-17T15:40:43.605Z,5.65
2023-01-17T15:43:22.329Z,4.80
2023-01-17T15:45:57.273Z,5.35
2023-01-17T15:48:40.890Z,8.18
2023-01-17T15:51:13.921Z,5.90
2023-01-17T15:53:46.810Z,5.82
2023-01-17T15:56:32.301Z,7.80
2023-01-17T15:59:46.430Z,7.13
2023-01-17T16:02:44.444Z,4.50
2023-01-17T16:05:24.070Z,5.40
2023-01-17T16:08:04.686Z,5.55
2023-01-17T16:10:39.746Z,7.90
2023-01-17T16:13:13.595Z,5.40
2023-01-17T16:15:46.792Z,6.78
2023-01-17T16:18:25.863Z,5.85
2023-01-17T16:21:16.120Z,7.45
2023-01-17T16:23:49.363Z,6.53
2023-01-17T16:26:22.897Z,6.73
2023-01-17T16:28:55.273Z,7.72
2023-01-17T16:31:28.162Z,9.00
2023-01-17T16:34:00.079Z,10.30
2023-01-17T16:36:35.341Z,10.75
2023-01-17T16:39:07.404Z,10.00
2023-01-17T16:41:40.170Z,6.82
2023-01-17T16:44:12.497Z,14.98
2023-01-17T16:46:45.755Z,7.53
2023-01-17T16:49:18.667Z,7.35
2023-01-17T16:51:52.189Z,5.93
2023-01-17T16:54:24.670Z,4.82
2023-01-17T16:56:56.971Z,11.73
2023-01-17T16:59:39.643Z,7.40
2023-01-17T17:02:23.029Z,5.68
2023-01-17T17:04:55.890Z,9.07
2023-01-17T17:07:27.843Z,6.20
2023-01-17T17:10:00.530Z,4.82
2023-01-17T17:12:32.840Z,8.32
2023-01-17T17:15:06.575Z,6.22
2023-01-17T17:17:41.451Z,7.57
2023-01-17T17:20:15.292Z,6.72
2023-01-17T17:22:51.604Z,6.70
2023-01-17T17:25:23.575Z,7.13
2023-01-17T17:27:56.376Z,7.60
2023-01-17T17:30:28.268Z,8.40
2023-01-17T17:33:01.102Z,7.47
2023-01-17T17:35:36.173Z,10.25
2023-01-17T17:38:09.392Z,8.45
2023-01-17T17:40:41.662Z,10.77
2023-01-17T17:43:13.667Z,9.60
2023-01-17T17:45:46.475Z,8.07
2023-01-17T17:48:18.380Z,7.85
2023-01-17T17:50:59.839Z,12.88
2023-01-17T17:53:32.530Z,10.63
2023-01-17T17:56:06.551Z,16.17
2023-01-17T17:58:39.373Z,17.50
2023-01-17T18:01:12.101Z,18.10
2023-01-17T18:03:44.454Z,17.10
2023-01-17T18:06:17.422Z,18.58
2023-01-17T18:08:51.797Z,16.30
2023-01-17T18:11:27.770Z,19.23
2023-01-17T18:14:02.957Z,19.23
2023-01-17T18:16:42.226Z,16.80
2023-01-17T18:19:21.814Z,15.35
2023-01-17T18:21:55.213Z,15.67
2023-01-17T18:24:28.099Z,14.10
2023-01-17T18:27:00.280Z,15.70
2023-01-17T18:29:33.733Z,15.88
2023-01-17T18:32:06.287Z,14.27
2023-01-17T18:34:41.861Z,13.93
2023-01-17T18:37:13.776Z,14.18
2023-01-17T18:39:46.896Z,14.65
2023-01-17T18:42:18.826Z,14.65
2023-01-17T18:44:51.951Z,16.27
2023-01-17T18:47:23.865Z,16.47
2023-01-17T18:49:56.894Z,16.33
2023-01-17T18:52:29.900Z,15.88
2023-01-17T18:55:02.659Z,14.95
2023-01-17T18:57:35.109Z,13.88
2023-01-17T19:00:09.784Z,14.33
2023-01-17T19:02:42.624Z,14.88
2023-01-17T19:05:15.947Z,16.83
2023-01-17T19:07:48.101Z,15.07
2023-01-17T19:10:20.861Z,16.45
2023-01-17T19:12:52.759Z,16.90
2023-01-17T19:15:25.763Z,18.05
2023-01-17T19:17:57.815Z,16.50
2023-01-17T19:23:24.870Z,18.50
2023-01-17T19:25:56.808Z,17.37
2023-01-17T19:28:29.784Z,17.13
2023-01-17T19:31:26.740Z,15.85
2023-01-17T19:34:00.458Z,14.45
2023-01-17T19:36:35.464Z,14.00
2023-01-17T19:39:09.963Z,14.90
2023-01-17T19:41:44.771Z,13.27
2023-01-17T19:44:17.125Z,15.35
2023-01-17T19:46:49.841Z,14.73
2023-01-17T19:49:24.986Z,15.63
2023-01-17T19:51:56.827Z,11.73
2023-01-17T19:54:29.535Z,13.25
2023-01-17T19:57:02.120Z,13.88
2023-01-17T19:59:35.021Z,14.30
2023-01-17T20:02:07.112Z,13.52
2023-01-17T20:04:40.042Z,16.33
2023-01-17T20:07:12.323Z,14.20
2023-01-17T20:09:44.621Z,16.45
2023-01-17T20:12:16.975Z,16.65
2023-01-17T20:14:50.283Z,13.88
2023-01-17T20:17:22.583Z,16.37
2023-01-17T20:19:57.765Z,15.70
2023-01-17T20:22:29.673Z,16.60
2023-01-17T20:25:02.526Z,13.38
2023-01-17T20:27:35.314Z,16.83
2023-01-17T20:30:19.852Z,15.87
2023-01-17T20:35:46.921Z,15.13
2023-01-17T20:38:19.994Z,12.68
2023-01-17T20:40:55.866Z,13.10
2023-01-17T20:43:28.855Z,10.93
2023-01-17T20:46:01.162Z,13.68
2023-01-17T20:48:34.096Z,14.60
2023-01-17T20:51:10.504Z,14.88
2023-01-17T20:53:45.559Z,15.85
2023-01-17T20:56:18.105Z,17.63
2023-01-17T20:58:54.811Z,14.73
2023-01-17T21:01:27.188Z,14.63
2023-01-17T21:03:59.234Z,15.50
2023-01-17T21:06:32.166Z,11.13
2023-01-17T21:09:07.132Z,11.13
2023-01-17T21:11:39.940Z,11.50
2023-01-17T21:14:12.261Z,11.90
2023-01-17T21:16:45.031Z,11.25
2023-01-17T21:19:17.169Z,10.93
2023-01-17T21:21:51.522Z,12.37
2023-01-17T21:24:23.580Z,11.55
2023-01-17T21:27:00.881Z,12.10
2023-01-17T21:29:33.208Z,8.43
2023-01-17T21:32:06.556Z,11.15
2023-01-17T21:34:38.455Z,10.33
2023-01-17T21:37:11.600Z,8.60
2023-01-17T21:39:44.021Z,6.38
2023-01-17T21:42:16.018Z,5.38
2023-01-17T21:44:49.917Z,5.20
2023-01-17T21:47:22.037Z,3.80
2023-01-17T21:49:54.891Z,3.70
2023-01-17T21:52:27.257Z,3.65
2023-01-17T21:55:18.403Z,4.18
2023-01-17T21:58:09.123Z,4.13
2023-01-17T22:00:44.867Z,5.70
2023-01-17T22:03:16.805Z,3.42
2023-01-17T22:05:49.522Z,3.83
2023-01-17T22:08:22.401Z,3.63
2023-01-17T22:10:55.082Z,4.10
2023-01-17T22:13:32.450Z,3.50
2023-01-17T22:16:09.220Z,3.78
2023-01-17T22:18:43.967Z,5.07
2023-01-17T22:21:24.575Z,4.25
2023-01-17T22:23:59.799Z,3.85
2023-01-17T22:26:33.159Z,4.60
2023-01-17T22:29:05.243Z,3.70
2023-01-17T22:31:38.153Z,3.65
2023-01-17T22:34:10.090Z,4.90
2023-01-17T22:36:43.095Z,3.38
2023-01-17T22:39:15.608Z,4.00
2023-01-17T22:41:50.808Z,3.78
2023-01-17T22:44:24.063Z,4.28
2023-01-17T22:46:56.492Z,3.63
2023-01-17T22:49:28.385Z,3.88
2023-01-17T22:52:01.414Z,3.70
2023-01-17T22:54:34.280Z,3.63
2023-01-17T22:57:07.898Z,3.63
2023-01-17T22:59:40.275Z,3.50
2023-01-17T23:02:12.555Z,4.22
2023-01-17T23:04:45.641Z,3.53
2023-01-17T23:07:18.295Z,3.92
2023-01-17T23:09:50.989Z,4.32
2023-01-17T23:12:23.591Z,4.00
2023-01-17T23:15:13.888Z,3.75
2023-01-17T23:18:04.992Z,3.73
2023-01-17T23:20:37.279Z,3.72
2023-01-17T23:23:10.237Z,4.10
2023-01-17T23:25:42.508Z,4.22
2023-01-17T23:28:20.663Z,3.55
2023-01-17T23:30:53.524Z,4.47
2023-01-17T23:33:26.107Z,4.18
2023-01-17T23:35:58.410Z,3.78
2023-01-17T23:38:30.853Z,4.30
2023-01-17T23:41:24.807Z,4.05
2023-01-17T23:43:59.242Z,4.03
2023-01-17T23:46:31.151Z,3.95
2023-01-17T23:49:03.888Z,4.45
2023-01-17T23:51:35.752Z,3.72
2023-01-17T23:54:10.128Z,3.92
2023-01-17T23:56:42.296Z,3.60
2023-01-17T23:59:15.061Z,4.25
